Time;durP1;ratioP1;P1;durP2;ratioP2;P2;SDS_P1;SDS_P2;PMS_P1;PMS_P2;Temp;Humidity;BMP_temperature;BMP_pressure;BME280_temperature;BME280_humidity;BME280_pressure;Samples;Min_cycle;Max_cycle;Signal;HPM_P1;HPM_P2
2022/04/21 00:02:15;;;;;;;18.60;11.73;;;;;;;5.12;71.24;101319.66;5114180;27;20066;-82
2022/04/21 00:04:41;;;;;;;19.05;12.90;;;;;;;5.21;71.16;101339.16;5114133;27;20113;-82
2022/04/21 00:07:06;;;;;;;18.65;12.10;;;;;;;5.08;70.75;101313.69;5096560;27;20019;-82
2022/04/21 00:09:32;;;;;;;17.95;11.52;;;;;;;5.20;70.61;101335.75;5096041;27;20042;-82
2022/04/21 00:11:57;;;;;;;18.95;11.82;;;;;;;5.12;71.23;101322.22;5112846;27;20047;-81
2022/04/21 00:14:23;;;;;;;17.77;11.43;;;;;;;5.12;70.50;101319.66;5096773;27;20064;-82
2022/04/21 00:16:48;;;;;;;18.27;11.88;;;;;;;5.22;70.91;101328.91;5096599;27;20039;-82
2022/04/21 00:19:14;;;;;;;16.02;10.85;;;;;;;5.09;70.35;101314.53;5096559;27;20030;-82
2022/04/21 00:24:23;;;;;;;18.27;11.93;;;;;;;5.12;70.70;101314.50;5115978;27;20041;-81
2022/04/21 00:26:49;;;;;;;18.60;12.50;;;;;;;5.23;70.57;101340.84;5079654;28;20023;-82
2022/04/21 00:29:14;;;;;;;17.35;12.45;;;;;;;5.16;70.73;101317.00;5096512;28;20031;-82
2022/04/21 00:31:40;;;;;;;18.40;12.35;;;;;;;5.09;70.32;101294.03;5096348;27;20019;-82
2022/04/21 00:34:05;;;;;;;18.48;12.98;;;;;;;5.24;71.06;101309.19;5096293;28;20034;-82
2022/04/21 00:36:31;;;;;;;19.13;12.77;;;;;;;5.15;70.57;101304.19;5095765;28;20027;-82
2022/04/21 00:38:56;;;;;;;21.05;13.23;;;;;;;5.26;71.15;101322.81;5096457;28;20444;-81
2022/04/21 00:41:22;;;;;;;18.80;13.10;;;;;;;5.35;70.69;101330.38;5079539;28;20114;-81
2022/04/21 00:43:47;;;;;;;19.13;13.10;;;;;;;5.39;70.96;101339.72;5096418;28;20035;-82
2022/04/21 00:46:17;;;;;;;19.23;12.93;;;;;;;5.32;71.38;101332.16;5096242;28;20035;-82
2022/04/21 00:48:43;;;;;;;20.27;13.60;;;;;;;5.30;70.50;101321.91;5079794;28;20046;-82
2022/04/21 00:51:08;;;;;;;19.83;13.40;;;;;;;5.19;70.64;101310.97;5079301;28;20015;-82
2022/04/21 00:53:34;;;;;;;17.95;12.85;;;;;;;5.38;70.57;101335.47;5112865;28;20126;-82
2022/04/21 00:55:59;;;;;;;21.60;14.90;;;;;;;5.21;70.42;101324.63;5113220;28;20471;-81
2022/04/21 00:58:25;;;;;;;21.77;15.18;;;;;;;5.20;70.96;101320.34;5096088;28;20496;-82
2022/04/21 01:00:51;;;;;;;23.50;15.40;;;;;;;5.25;71.10;101326.28;5079219;28;20030;-81
2022/04/21 01:03:16;;;;;;;22.30;14.40;;;;;;;5.28;71.53;101330.50;5095988;28;20421;-82
2022/04/21 01:05:42;;;;;;;20.67;14.23;;;;;;;5.23;71.28;101325.44;5095720;28;20023;-82
2022/04/21 01:08:08;;;;;;;22.67;14.43;;;;;;;5.30;71.00;101332.16;5113156;28;20023;-82
2022/04/21 01:10:35;;;;;;;21.52;14.18;;;;;;;5.38;70.87;101330.31;5095990;28;20035;-82
2022/04/21 01:13:01;;;;;;;21.67;13.90;;;;;;;5.31;70.85;101331.31;5079197;28;20111;-82
2022/04/21 01:15:27;;;;;;;20.58;13.65;;;;;;;5.24;70.75;101328.88;5096027;28;20405;-82
2022/04/21 01:17:53;;;;;;;20.90;13.95;;;;;;;5.32;70.32;101340.72;5079128;28;20084;-82
2022/04/21 01:20:19;;;;;;;19.40;13.57;;;;;;;5.17;70.26;101317.84;5095491;28;20102;-82
2022/04/21 01:22:45;;;;;;;20.52;13.80;;;;;;;5.28;70.66;101336.47;5098166;27;20054;-82
2022/04/21 01:25:13;;;;;;;20.65;13.55;;;;;;;5.12;70.90;101305.09;5116987;27;20062;-81
2022/04/21 01:27:39;;;;;;;19.98;14.13;;;;;;;5.31;70.73;101341.59;5135176;27;20038;-81
2022/04/21 01:30:06;;;;;;;20.25;13.93;;;;;;;5.35;70.88;101343.22;5082790;27;20023;-82
2022/04/21 01:32:35;;;;;;;21.52;14.45;;;;;;;5.24;70.51;101328.88;5099624;27;20035;-82
2022/04/21 01:35:05;;;;;;;20.02;14.30;;;;;;;5.17;71.16;101322.97;5100498;27;20079;-82
2022/04/21 01:42:58;;;;;;;20.92;14.38;;;;;;;5.08;71.09;101307.72;5119028;27;20080;-82
2022/04/21 01:45:24;;;;;;;21.95;14.88;;;;;;;5.10;71.20;101308.53;5116293;27;20462;-81
2022/04/21 01:47:49;;;;;;;22.38;14.75;;;;;;;4.97;71.33;101297.63;5082458;27;20499;-82
2022/04/21 01:50:15;;;;;;;23.05;14.93;;;;;;;4.94;71.37;101299.41;5099161;27;20038;-82
2022/04/21 01:52:40;;;;;;;22.90;15.68;;;;;;;4.80;71.46;101282.50;5082375;27;20030;-82
2022/04/21 01:55:06;;;;;;;22.63;15.20;;;;;;;4.88;71.41;101293.47;5082247;27;20111;-82
2022/04/21 01:57:32;;;;;;;24.27;15.93;;;;;;;4.95;71.81;101301.94;5082300;27;20024;-82
2022/04/21 01:59:58;;;;;;;21.73;14.75;;;;;;;4.78;71.77;101278.25;5116098;27;20027;-81
2022/04/21 02:02:23;;;;;;;21.98;14.77;;;;;;;4.97;71.70;101294.22;5099100;27;20110;-82
2022/04/21 02:04:49;;;;;;;19.85;13.88;;;;;;;4.85;71.53;101274.75;5098715;27;20113;-81
2022/04/21 02:07:15;;;;;;;20.60;14.00;;;;;;;4.96;70.74;101292.53;5082121;27;20412;-81
2022/04/21 02:09:40;;;;;;;19.27;13.90;;;;;;;4.77;71.16;101266.31;5098823;27;20034;-81
2022/04/21 02:12:06;;;;;;;20.25;13.40;;;;;;;4.96;71.31;101277.16;5115897;27;20052;-81
2022/04/21 02:14:33;;;;;;;23.42;15.32;;;;;;;4.96;71.56;101282.28;5133867;27;20076;-81
2022/04/21 02:16:59;;;;;;;23.30;15.63;;;;;;;4.98;71.10;101272.84;5115805;27;20027;-82
2022/04/21 02:19:24;;;;;;;21.15;15.57;;;;;;;4.95;71.13;101275.47;5098934;27;20098;-81
2022/04/21 02:21:50;;;;;;;22.02;14.18;;;;;;;4.96;71.03;101269.44;5081657;27;20477;-82
2022/04/21 02:24:15;;;;;;;21.40;15.30;;;;;;;5.15;70.82;101288.81;5115799;27;20035;-81
2022/04/21 02:26:41;;;;;;;21.77;14.40;;;;;;;5.00;70.99;101263.41;5115977;27;20507;-82
2022/04/21 02:29:06;;;;;;;21.52;14.40;;;;;;;4.98;70.88;101265.16;5081745;27;20064;-82
2022/04/21 02:31:32;;;;;;;22.45;14.95;;;;;;;5.04;71.03;101271.03;5098391;27;20027;-81
2022/04/21 02:33:57;;;;;;;26.73;16.38;;;;;;;4.82;71.01;101244.88;5114072;27;20027;-81
2022/04/21 02:36:23;;;;;;;22.75;14.88;;;;;;;4.99;71.45;101277.09;5098516;27;20027;-81
2022/04/21 02:38:48;;;;;;;22.42;14.88;;;;;;;4.93;71.75;101272.91;5081632;27;20046;-82
2022/04/21 02:41:16;;;;;;;22.48;15.38;;;;;;;4.93;71.89;101287.47;5115557;27;20023;-82
2022/04/21 02:43:41;;;;;;;22.23;16.15;;;;;;;4.86;71.03;101290.09;5099017;27;20024;-81
2022/04/21 02:46:07;;;;;;;21.30;14.95;;;;;;;4.83;71.61;101290.16;5098414;27;20050;-81
2022/04/21 02:48:32;;;;;;;22.90;15.68;;;;;;;4.78;71.61;101284.22;5081094;27;20035;-82
2022/04/21 02:50:57;;;;;;;21.90;14.52;;;;;;;4.58;71.51;101256.31;5098064;27;20033;-82
2022/04/21 02:57:20;;;;;;;21.95;15.13;;;;;;;4.68;71.31;101281.81;5098001;27;20035;-82
2022/04/21 02:58:52;;;;;;;22.98;15.63;;;;;;;4.40;71.76;101268.53;5103377;27;20130;-82
2022/04/21 03:01:18;;;;;;;24.20;15.38;;;;;;;4.45;71.68;101277.03;5098177;27;20115;-82
2022/04/21 03:03:43;;;;;;;20.88;14.75;;;;;;;4.24;71.52;101255.94;5097506;27;20027;-82
2022/04/21 03:06:11;;;;;;;19.60;11.77;;;;;;;5.94;72.91;101276.31;5114694;27;20023;-87
2022/04/21 03:08:37;;;;;;;15.00;10.85;;;;;;;8.46;61.11;101268.41;5098174;27;20030;-88
2022/04/21 03:11:02;;;;;;;14.82;10.32;;;;;;;10.46;53.62;101276.28;5097800;27;20043;-87
2022/04/21 03:13:28;;;;;;;14.68;10.55;;;;;;;11.30;50.08;101271.16;5114663;27;20034;-88
2022/04/21 03:15:53;;;;;;;16.15;12.63;;;;;;;11.17;48.84;101263.06;5097512;27;20023;-87
2022/04/21 03:18:19;;;;;;;14.35;11.25;;;;;;;11.64;48.32;101264.56;5132450;27;20030;-87
2022/04/21 03:26:20;;;;;;;15.63;13.13;;;;;;;11.48;47.59;101261.78;5100919;27;20105;-86
2022/04/21 03:28:45;;;;;;;18.33;15.23;;;;;;;10.76;48.37;101272.50;5093582;27;20044;-84
2022/04/21 03:31:11;;;;;;;21.38;17.00;;;;;;;9.37;52.44;101287.88;5092766;28;20074;-83
2022/04/21 03:33:36;;;;;;;23.63;18.55;;;;;;;8.40;54.92;101285.78;5076805;28;20054;-86
2022/04/21 03:36:02;;;;;;;25.10;18.13;;;;;;;7.45;58.29;101301.22;5076246;28;20389;-85
2022/04/21 03:38:28;;;;;;;22.67;17.65;;;;;;;6.93;60.15;101307.63;5076845;28;20024;-85
2022/04/21 03:40:56;;;;;;;25.38;18.80;;;;;;;6.55;61.16;101303.31;5059777;28;20028;-85
2022/04/21 03:43:21;;;;;;;33.22;21.13;;;;;;;6.13;62.44;101297.34;5077610;28;20032;-85
2022/04/21 03:45:46;;;;;;;29.60;19.60;;;;;;;5.97;63.72;101313.06;5076110;28;20035;-84
2022/04/21 03:48:13;;;;;;;35.15;21.30;;;;;;;5.62;65.25;101305.97;5076398;28;20408;-85
2022/04/21 03:50:39;;;;;;;39.50;23.23;;;;;;;5.53;65.96;101307.84;5076525;28;20485;-84
2022/04/21 03:53:05;;;;;;;37.28;22.30;;;;;;;5.15;66.83;101284.53;5093315;28;20031;-85
2022/04/21 03:55:31;;;;;;;29.45;19.45;;;;;;;5.12;67.60;101301.69;5059489;28;20028;-85
2022/04/21 03:57:57;;;;;;;32.60;21.30;;;;;;;4.89;68.71;101302.88;5076031;28;20019;-84
2022/04/21 04:00:22;;;;;;;34.97;21.65;;;;;;;4.75;69.48;101298.81;5075344;28;20458;-86
2022/04/21 04:02:48;;;;;;;35.13;21.05;;;;;;;4.82;70.02;101301.28;5110947;28;20023;-85
2022/04/21 04:05:13;;;;;;;37.88;22.88;;;;;;;4.75;69.97;101312.47;5076427;28;20405;-85
2022/04/21 04:13:06;;;;;;;36.22;23.60;;;;;;;4.41;71.12;101276.19;5093942;28;20084;-86
2022/04/21 04:15:33;;;;;;;33.83;22.90;;;;;;;4.38;71.53;101260.03;5057721;28;20044;-85
2022/04/21 04:17:58;;;;;;;34.92;23.83;;;;;;;4.48;72.03;101292.34;5092748;28;20047;-85
2022/04/21 04:20:24;;;;;;;34.03;22.38;;;;;;;4.33;72.29;101270.34;5076218;28;20480;-83
2022/04/21 04:22:49;;;;;;;37.03;25.45;;;;;;;4.43;72.60;101291.59;5092358;28;20062;-84
2022/04/21 04:25:15;;;;;;;32.63;22.67;;;;;;;4.44;72.14;101288.16;5107454;27;20034;-82
2022/04/21 04:27:41;;;;;;;36.05;24.83;;;;;;;4.47;72.61;101282.97;5111452;27;20031;-85
2022/04/21 04:30:07;;;;;;;36.30;23.77;;;;;;;4.54;72.75;101294.84;5110926;27;20068;-82
2022/04/21 04:32:33;;;;;;;40.42;25.88;;;;;;;4.32;73.06;101254.09;5079551;27;20083;-87
2022/04/21 04:34:59;;;;;;;41.35;26.88;;;;;;;4.65;72.52;101290.41;5112320;28;20027;-84
2022/04/21 04:37:24;;;;;;;49.38;30.73;;;;;;;4.61;72.89;101299.84;5095297;28;20099;-86
2022/04/21 04:39:50;;;;;;;46.22;28.95;;;;;;;4.69;73.65;101294.63;5095716;28;20032;-85
2022/04/21 04:42:17;;;;;;;44.15;28.95;;;;;;;4.83;73.14;101297.84;5110528;28;20450;-86
2022/04/21 04:44:49;;;;;;;42.10;28.60;;;;;;;4.93;72.70;101292.59;5074710;28;20032;-87
2022/04/21 04:47:15;;;;;;;44.85;29.17;;;;;;;5.03;72.49;101291.56;5093827;28;20465;-83
2022/04/21 04:49:40;;;;;;;45.63;29.33;;;;;;;5.09;71.86;101291.47;5096678;28;20060;-83
2022/04/21 04:52:06;;;;;;;50.83;32.45;;;;;;;5.20;72.68;101299.81;5091315;28;20039;-82
2022/04/21 04:54:36;;;;;;;50.83;33.08;;;;;;;5.18;72.40;101301.56;5112791;28;20030;-92
2022/04/21 04:57:02;;;;;;;46.75;30.85;;;;;;;5.13;72.80;101290.56;5076499;27;20032;-87
2022/04/21 04:59:29;;;;;;;39.50;27.30;;;;;;;5.20;71.81;101299.81;5100362;27;20415;-90
2022/04/21 05:01:54;;;;;;;42.08;27.10;;;;;;;5.20;72.07;101276.75;5093303;27;20038;-85
2022/04/21 05:04:20;;;;;;;46.55;30.35;;;;;;;5.47;72.33;101311.38;5101382;27;20023;-83
2022/04/21 05:06:47;;;;;;;41.67;25.58;;;;;;;5.56;72.47;101302.66;5073884;27;20023;-83
2022/04/21 05:09:17;;;;;;;36.58;22.35;;;;;;;5.58;71.38;101311.19;5103462;27;20058;-84
2022/04/21 05:11:46;;;;;;;37.75;22.30;;;;;;;5.54;71.36;101286.44;5100343;27;20496;-81
2022/04/21 05:14:13;;;;;;;31.27;19.42;;;;;;;5.61;70.93;101318.84;5102273;27;20119;-82
2022/04/21 05:16:39;;;;;;;29.58;18.90;;;;;;;5.44;70.85;101304.56;5083598;27;20035;-81
2022/04/21 05:19:09;;;;;;;58.13;30.77;;;;;;;5.56;71.00;101315.50;5091922;27;20034;-84
2022/04/21 05:21:35;;;;;;;29.38;18.00;;;;;;;5.66;70.80;101311.91;5085095;27;20023;-86
2022/04/21 05:24:01;;;;;;;28.85;17.73;;;;;;;5.72;71.27;101314.38;5087437;27;20511;-81
2022/04/21 05:26:30;;;;;;;24.17;15.52;;;;;;;5.60;70.34;101304.28;5095309;27;20030;-88
2022/04/21 05:28:57;;;;;;;24.02;15.73;;;;;;;5.67;70.33;101293.06;5098932;28;20023;-91
2022/04/21 05:31:23;;;;;;;23.98;15.25;;;;;;;5.87;70.37;101316.63;5081210;27;20058;-95
2022/04/21 05:33:49;;;;;;;24.05;15.25;;;;;;;5.80;69.75;101306.50;5080787;27;20519;-86
2022/04/21 05:36:14;;;;;;;23.45;15.48;;;;;;;5.83;69.81;101299.59;5087720;27;20114;-85
2022/04/21 05:38:40;;;;;;;23.48;15.90;;;;;;;6.00;69.82;101313.00;5084265;27;20089;-90
2022/04/21 05:41:06;;;;;;;23.83;14.80;;;;;;;6.24;69.53;101315.97;5078348;27;20118;-88
2022/04/21 05:43:42;;;;;;;22.65;14.90;;;;;;;6.21;68.56;101326.31;5086956;27;20114;-82
2022/04/21 05:46:09;;;;;;;22.27;14.70;;;;;;;6.30;68.27;101310.72;5082846;27;20020;-84
2022/04/21 05:48:35;;;;;;;23.40;15.93;;;;;;;6.55;67.12;101305.91;5082407;27;20023;-83
2022/04/21 05:51:01;;;;;;;24.27;15.40;;;;;;;6.77;67.45;101301.13;5103839;27;20508;-80
2022/04/21 05:53:27;;;;;;;25.65;16.65;;;;;;;6.53;66.67;101258.81;5094183;27;20035;-85
2022/04/21 05:55:53;;;;;;;24.15;15.18;;;;;;;6.67;67.09;101297.06;5117390;27;20028;-87
2022/04/21 05:58:19;;;;;;;28.55;17.45;;;;;;;6.93;67.09;101307.63;5083099;27;20022;-82
2022/04/21 06:00:44;;;;;;;23.20;16.52;;;;;;;7.09;66.06;101302.97;5096722;27;21425;-85
2022/04/21 06:03:12;;;;;;;24.90;16.02;;;;;;;7.22;66.18;101314.66;5119291;27;20031;-84
2022/04/21 06:05:39;;;;;;;24.00;16.50;;;;;;;7.21;65.57;101306.97;5091038;27;20038;-85
2022/04/21 06:08:06;;;;;;;24.70;16.40;;;;;;;7.32;65.94;101307.56;5100042;28;20404;-82
2022/04/21 06:10:32;;;;;;;27.52;17.40;;;;;;;7.39;65.74;101296.25;5081824;27;20035;-87
2022/04/21 06:12:58;;;;;;;23.42;16.42;;;;;;;7.36;65.71;101301.44;5081246;27;20105;-84
2022/04/21 06:15:23;;;;;;;33.65;22.58;;;;;;;7.55;65.74;101312.97;5103456;27;20473;-88
2022/04/21 06:17:49;;;;;;;37.58;25.92;;;;;;;7.63;65.54;101307.63;5065572;27;20084;-86
2022/04/21 06:20:14;;;;;;;41.60;27.25;;;;;;;7.78;65.30;101316.72;5084227;27;20055;-84
2022/04/21 06:22:40;;;;;;;26.38;17.38;;;;;;;7.72;64.38;101295.38;5099324;27;20031;-87
2022/04/21 06:25:06;;;;;;;24.30;15.25;;;;;;;7.79;63.75;101295.22;5066146;27;20818;-83
2022/04/21 06:27:31;;;;;;;22.88;14.65;;;;;;;7.68;63.63;101292.91;5082967;27;20062;-85
2022/04/21 06:29:59;;;;;;;24.63;16.35;;;;;;;7.53;64.67;101304.44;5085830;27;20027;-83
2022/04/21 06:32:25;;;;;;;25.95;15.18;;;;;;;7.73;64.29;101302.19;5101353;27;20222;-83
2022/04/21 06:34:50;;;;;;;24.50;17.13;;;;;;;7.94;64.56;101305.09;5080677;27;20066;-82
2022/04/21 06:37:16;;;;;;;24.95;16.75;;;;;;;7.89;63.50;101291.50;5085287;27;20500;-83
2022/04/21 06:39:41;;;;;;;23.35;15.27;;;;;;;7.97;63.90;101298.13;5096090;27;20408;-86
2022/04/21 06:42:07;;;;;;;22.13;15.93;;;;;;;7.94;63.67;101272.44;5077590;27;20168;-83
2022/04/21 06:50:01;;;;;;;29.40;17.25;;;;;;;8.30;64.44;101272.28;5115844;27;20043;-88
2022/04/21 06:52:27;;;;;;;24.30;14.98;;;;;;;8.54;62.71;101284.47;5093194;27;20067;-85
2022/04/21 06:54:53;;;;;;;26.60;18.42;;;;;;;8.74;63.28;101275.28;5099552;27;20035;-85
2022/04/21 06:57:19;;;;;;;26.05;17.08;;;;;;;8.96;63.04;101288.38;5101904;27;20038;-84
2022/04/21 06:59:45;;;;;;;25.20;16.10;;;;;;;9.08;69.93;101272.50;5100244;27;20035;-95
2022/04/21 07:02:12;;;;;;;22.45;15.75;;;;;;;9.42;67.95;101261.88;5084265;27;20087;-81
2022/04/21 07:04:38;;;;;;;22.55;16.00;;;;;;;9.83;65.08;101273.38;5117465;27;20508;-84
2022/04/21 07:07:04;;;;;;;25.02;16.98;;;;;;;10.00;60.14;101283.94;5087625;27;20072;-84
2022/04/21 07:09:29;;;;;;;23.33;16.10;;;;;;;9.78;60.33;101291.63;5097231;27;20027;-91
2022/04/21 07:11:55;;;;;;;25.33;16.90;;;;;;;9.71;60.11;101272.06;5087406;27;20519;-86
2022/04/21 07:14:20;;;;;;;27.42;16.95;;;;;;;9.99;59.71;101290.03;5083892;27;20712;-83
2022/04/21 07:16:46;;;;;;;29.42;17.65;;;;;;;9.98;61.22;101259.91;5099961;27;20031;-83
2022/04/21 07:19:11;;;;;;;69.38;46.45;;;;;;;10.33;59.75;101274.16;5081358;27;20031;-85
2022/04/21 07:21:37;;;;;;;43.15;29.52;;;;;;;10.33;59.19;101278.50;5122804;27;20098;-85
2022/04/21 07:24:02;;;;;;;36.05;25.77;;;;;;;10.27;58.30;101271.78;5096504;28;20062;-83
2022/04/21 07:26:28;;;;;;;49.00;33.13;;;;;;;10.45;58.62;101293.53;5092293;28;20114;-93
2022/04/21 07:28:54;;;;;;;26.13;18.45;;;;;;;10.18;58.59;101294.53;5059285;28;20016;-88
2022/04/21 07:31:19;;;;;;;61.47;38.17;;;;;;;10.24;58.98;101279.69;5093294;28;20032;-83
2022/04/21 07:33:45;;;;;;;28.05;17.33;;;;;;;10.16;58.57;101288.56;5095296;27;20406;-86
2022/04/21 07:36:10;;;;;;;36.22;24.88;;;;;;;10.26;59.27;101283.03;5069312;27;20045;-82
2022/04/21 07:38:36;;;;;;;24.02;15.80;;;;;;;10.25;58.72;101281.34;5083236;27;20038;-85
2022/04/21 07:41:02;;;;;;;24.02;17.58;;;;;;;10.27;58.81;101283.88;5073282;27;20032;-82
2022/04/21 07:43:28;;;;;;;27.98;18.88;;;;;;;10.18;59.88;101279.00;5063198;27;20613;-83
2022/04/21 07:45:53;;;;;;;27.48;18.65;;;;;;;10.32;59.62;101277.66;5082476;27;20035;-85
2022/04/21 07:48:19;;;;;;;27.48;18.40;;;;;;;10.32;59.80;101256.97;5092577;27;20062;-82
2022/04/21 07:50:44;;;;;;;29.92;19.17;;;;;;;10.71;59.18;101278.75;5088232;27;20035;-81
2022/04/21 07:53:13;;;;;;;28.42;18.08;;;;;;;10.80;58.69;101268.03;5082701;27;20115;-87
2022/04/21 07:55:39;;;;;;;27.48;18.73;;;;;;;10.82;58.71;101271.44;5096493;27;20023;-84
2022/04/21 07:58:04;;;;;;;28.45;19.27;;;;;;;10.75;58.95;101273.41;5064696;27;20041;-82
2022/04/21 08:00:30;;;;;;;27.88;18.65;;;;;;;10.74;57.96;101276.06;5087415;27;20061;-80
2022/04/21 08:02:56;;;;;;;28.30;18.17;;;;;;;10.54;58.69;101250.97;5081217;27;20057;-84
2022/04/21 08:05:22;;;;;;;27.13;18.63;;;;;;;10.99;58.67;101273.31;5082652;27;20480;-94
2022/04/21 08:07:47;;;;;;;28.55;19.52;;;;;;;11.22;57.96;101277.59;5080658;27;20489;-90
2022/04/21 08:10:13;;;;;;;24.55;17.60;;;;;;;11.24;55.20;101263.66;5086235;27;20161;-90
2022/04/21 08:12:46;;;;;;;23.92;18.02;;;;;;;11.36;56.92;101265.72;5094565;27;20716;-86
2022/04/21 08:15:13;;;;;;;24.58;18.05;;;;;;;11.24;56.58;101242.09;5085050;27;20039;-83
2022/04/21 08:17:39;;;;;;;22.83;15.65;;;;;;;11.19;55.91;101271.59;5081577;27;20027;-84
2022/04/21 08:20:08;;;;;;;22.65;16.80;;;;;;;11.07;56.31;101256.56;5085215;27;20057;-83
2022/04/21 08:22:34;;;;;;;26.17;18.35;;;;;;;11.22;56.70;101268.06;5101890;28;20122;-83
2022/04/21 08:33:11;;;;;;;24.90;18.60;;;;;;;11.54;55.50;101284.84;5099269;27;20046;-83
2022/04/21 08:35:37;;;;;;;26.05;17.42;;;;;;;11.84;56.10;101277.53;5088261;28;20062;-84
2022/04/21 08:38:03;;;;;;;20.38;15.43;;;;;;;12.02;54.04;101262.91;5103574;28;20110;-84
2022/04/21 08:40:29;;;;;;;20.27;15.73;;;;;;;12.24;53.33;101263.63;5102213;28;20079;-82
2022/04/21 08:42:55;;;;;;;23.35;15.70;;;;;;;12.26;54.74;101256.59;5104604;28;20023;-80
2022/04/21 08:45:21;;;;;;;21.23;14.60;;;;;;;12.50;51.43;101269.38;5100190;28;20109;-85
2022/04/21 08:47:48;;;;;;;17.23;14.07;;;;;;;12.51;50.56;101265.88;5071462;28;20042;-83
2022/04/21 08:50:14;;;;;;;14.55;12.30;;;;;;;12.59;49.12;101261.16;5085390;28;20039;-85
2022/04/21 08:52:41;;;;;;;18.65;14.10;;;;;;;12.55;49.72;101267.41;5107053;28;20440;-84
2022/04/21 08:55:07;;;;;;;12.40;10.63;;;;;;;13.03;51.85;101261.59;5089080;28;20590;-85
2022/04/21 08:57:35;;;;;;;10.73;8.68;;;;;;;13.31;43.92;101250.72;5084021;28;20035;-81
2022/04/21 09:00:01;;;;;;;13.00;10.38;;;;;;;13.18;44.89;101262.63;5099639;28;20159;-84
2022/04/21 09:02:45;;;;;;;13.52;11.20;;;;;;;13.16;46.38;101267.88;5084421;28;20028;-85
2022/04/21 09:05:11;;;;;;;15.10;12.98;;;;;;;13.07;43.76;101259.69;5073827;28;20024;-83
2022/04/21 09:07:44;;;;;;;13.55;11.20;;;;;;;13.08;46.99;101253.59;5105346;28;20093;-85
2022/04/21 09:10:13;;;;;;;16.33;12.50;;;;;;;12.91;46.70;101244.88;5129117;27;20050;-82
2022/04/21 09:12:48;;;;;;;12.80;10.32;;;;;;;13.08;44.41;101253.59;5090994;28;20088;-86
2022/04/21 09:15:18;;;;;;;9.95;7.35;;;;;;;13.03;41.18;101238.22;5113277;27;20096;-86
2022/04/21 09:17:44;;;;;;;11.07;8.95;;;;;;;13.29;41.58;101249.13;5105552;27;20034;-86
2022/04/21 09:20:10;;;;;;;10.82;9.02;;;;;;;13.60;40.60;101243.22;5122138;27;20046;-84
2022/04/21 09:22:37;;;;;;;11.07;9.38;;;;;;;13.78;41.10;101239.66;5067580;28;20058;-89
2022/04/21 09:25:03;;;;;;;11.95;10.15;;;;;;;13.81;42.17;101223.03;5070498;28;20028;-89
2022/04/21 09:27:48;;;;;;;10.88;9.00;;;;;;;13.90;40.90;101231.19;5089965;28;20027;-86
2022/04/21 09:30:14;;;;;;;9.80;7.82;;;;;;;14.27;38.66;101239.63;5087233;28;20050;-88
2022/04/21 09:32:41;;;;;;;9.90;8.38;;;;;;;14.48;41.94;101222.03;5070921;28;20104;-85
2022/04/21 09:35:07;;;;;;;9.52;7.93;;;;;;;14.71;40.42;101241.56;5086721;28;20038;-84
2022/04/21 09:37:43;;;;;;;9.55;8.55;;;;;;;15.02;39.90;101231.06;5087678;28;20030;-86
2022/04/21 09:40:11;;;;;;;9.80;8.80;;;;;;;15.18;39.46;101218.81;5088013;27;20031;-95
2022/04/21 09:42:36;;;;;;;11.27;10.07;;;;;;;15.21;40.38;101220.41;5094334;27;20039;-84
2022/04/21 09:47:54;;;;;;;11.75;9.93;;;;;;;15.53;41.27;101228.91;5102858;27;20030;-85
2022/04/21 09:50:20;;;;;;;11.38;9.32;;;;;;;15.71;40.78;101220.03;5116051;27;20110;-82
2022/04/21 09:52:52;;;;;;;11.55;9.52;;;;;;;15.77;39.66;101219.66;5097994;27;20027;-84
2022/04/21 09:55:21;;;;;;;11.52;10.32;;;;;;;15.76;40.99;101219.75;5082109;27;20396;-84
2022/04/21 09:57:50;;;;;;;10.50;9.40;;;;;;;15.75;40.39;101208.47;5112134;27;20019;-84
2022/04/21 10:00:16;;;;;;;10.75;8.32;;;;;;;15.91;39.38;101207.53;5095306;27;20044;-86
2022/04/21 10:02:45;;;;;;;21.25;17.63;;;;;;;16.04;39.08;101211.06;5095433;27;20562;-87
2022/04/21 10:05:11;;;;;;;10.48;9.35;;;;;;;15.82;38.70;101201.09;5120582;27;20542;-83
2022/04/21 10:07:37;;;;;;;10.52;9.43;;;;;;;15.85;39.83;101213.97;5095047;27;20027;-87
2022/04/21 10:10:03;;;;;;;11.10;9.60;;;;;;;16.00;40.08;101201.72;5079356;27;20503;-91
2022/04/21 10:12:29;;;;;;;11.90;9.95;;;;;;;16.12;42.00;101200.13;5098516;28;20168;-90
2022/04/21 10:14:55;;;;;;;11.10;9.90;;;;;;;16.17;41.26;101190.25;5066277;28;20118;-91
2022/04/21 10:17:21;;;;;;;11.40;10.20;;;;;;;16.35;39.02;101171.63;5093696;28;20160;-85
2022/04/21 10:19:51;;;;;;;15.23;13.55;;;;;;;16.57;40.69;101180.69;5076553;28;20115;-89
2022/04/21 10:22:17;;;;;;;12.30;10.77;;;;;;;16.81;37.70;101184.34;5075913;28;20031;-84
2022/04/21 10:24:43;;;;;;;9.20;8.13;;;;;;;16.94;37.95;101193.97;5085967;28;20038;-84
2022/04/21 10:27:38;;;;;;;8.60;7.80;;;;;;;17.12;37.19;101198.81;5085820;28;20024;-84
2022/04/21 10:30:16;;;;;;;12.00;10.05;;;;;;;17.30;38.54;101196.72;5132404;27;20034;-86
2022/04/21 10:32:48;;;;;;;14.32;12.30;;;;;;;17.35;37.70;101189.41;5132869;27;20027;-93
2022/04/21 10:35:23;;;;;;;40.92;30.80;;;;;;;17.49;38.89;101184.06;5083091;27;20046;-86
2022/04/21 10:38:14;;;;;;;14.25;12.32;;;;;;;17.71;37.60;101182.63;5112667;27;20027;-83
2022/04/21 10:40:56;;;;;;;9.68;8.68;;;;;;;17.88;37.97;101174.41;5114006;27;20023;-92
2022/04/21 10:43:22;;;;;;;10.38;9.30;;;;;;;17.81;37.35;101160.09;5126092;27;20128;-94
2022/04/21 10:46:04;;;;;;;11.68;10.00;;;;;;;17.94;37.49;101166.13;5093506;27;20039;-84
2022/04/21 10:48:43;;;;;;;10.85;9.70;;;;;;;17.85;37.50;101164.16;5087408;27;20035;-85
2022/04/21 10:51:09;;;;;;;14.80;13.18;;;;;;;17.66;37.60;101155.91;5114043;27;20031;-85
2022/04/21 10:57:12;;;;;;;12.55;11.25;;;;;;;17.80;38.05;101142.72;5115693;27;20041;-89
2022/04/21 10:59:31;;;;;;;13.07;11.10;;;;;;;17.74;38.46;101132.69;5122674;27;20103;-86
2022/04/21 11:02:12;;;;;;;9.55;8.65;;;;;;;17.77;37.28;101135.06;5132437;27;20035;-83
2022/04/21 11:04:38;;;;;;;12.02;9.35;;;;;;;17.87;38.54;101133.47;5094030;28;20152;-90
2022/04/21 11:07:11;;;;;;;10.50;9.23;;;;;;;17.67;38.23;101105.22;5089045;28;20118;-87
2022/04/21 11:09:41;;;;;;;9.77;8.77;;;;;;;17.80;37.07;101129.63;5110147;27;20023;-83
2022/04/21 11:12:07;;;;;;;9.70;8.73;;;;;;;17.81;37.23;101126.06;5127336;27;20043;-85
2022/04/21 11:14:36;;;;;;;11.93;9.80;;;;;;;17.76;37.69;101115.09;5095232;27;20074;-85
2022/04/21 11:17:04;;;;;;;10.50;9.32;;;;;;;17.66;38.09;101098.34;5078743;27;20539;-83
2022/04/21 11:19:32;;;;;;;10.40;8.50;;;;;;;18.06;38.47;101132.97;5112001;27;20016;-82
2022/04/21 11:21:59;;;;;;;9.10;8.20;;;;;;;17.84;37.16;101102.28;5130422;27;20030;-81
2022/04/21 11:24:25;;;;;;;9.88;8.13;;;;;;;17.89;37.30;101126.34;5094835;27;20097;-84
2022/04/21 11:27:00;;;;;;;10.32;8.63;;;;;;;18.05;38.21;101123.47;5094967;27;20034;-82
2022/04/21 11:29:26;;;;;;;9.60;8.55;;;;;;;18.19;37.08;101125.94;5095167;27;20347;-88
2022/04/21 11:31:59;;;;;;;9.55;8.35;;;;;;;18.28;36.95;101101.66;5095185;27;20122;-86
2022/04/21 11:34:25;;;;;;;9.55;8.23;;;;;;;18.38;36.18;101114.91;5077859;27;20031;-83
2022/04/21 11:36:56;;;;;;;9.45;7.80;;;;;;;18.09;36.45;101105.75;5112184;27;20046;-85
2022/04/21 11:39:21;;;;;;;9.88;7.78;;;;;;;18.12;36.73;101103.75;5092359;28;20081;-85
2022/04/21 11:41:48;;;;;;;8.80;7.75;;;;;;;18.22;36.29;101096.06;5095589;27;20039;-86
2022/04/21 11:44:21;;;;;;;8.43;7.47;;;;;;;18.28;36.16;101096.44;5096451;27;20454;-85
2022/04/21 11:46:47;;;;;;;8.57;7.78;;;;;;;18.23;36.41;101100.34;5097233;27;20487;-84
2022/04/21 11:49:12;;;;;;;9.13;8.18;;;;;;;18.19;37.06;101096.25;5117934;27;20031;-85
2022/04/21 11:51:38;;;;;;;8.43;7.63;;;;;;;18.11;36.70;101085.53;5092200;28;20076;-85
2022/04/21 11:54:08;;;;;;;12.02;9.77;;;;;;;18.19;37.21;101089.28;5092421;28;20020;-85
2022/04/21 11:56:33;;;;;;;24.95;20.95;;;;;;;18.04;36.39;101051.94;5094020;27;20034;-84
2022/04/21 11:59:09;;;;;;;12.13;8.30;;;;;;;18.23;37.03;101079.41;5113073;27;20027;-84